Time;durP1;ratioP1;P1;durP2;ratioP2;P2;SDS_P1;SDS_P2;PMS_P1;PMS_P2;Temp;Humidity;BMP_temperature;BMP_pressure;BME280_temperature;BME280_humidity;BME280_pressure;Samples;Min_cycle;Max_cycle;Signal;HPM_P1;HPM_P2
2021/12/29 00:01:16;;;;;;;;;;;;;;;4.23;70.10;98905.22;4450155;32;34247;-56
2021/12/29 00:03:44;;;;;;;;;;;;;;;4.20;70.22;98908.00;4450460;32;33493;-56
2021/12/29 00:06:11;;;;;;;;;;;;;;;4.42;69.56;98910.34;4450400;32;34121;-56
2021/12/29 00:08:38;;;;;;;;;;;;;;;4.33;69.49;98906.47;4450104;32;34845;-56
2021/12/29 00:11:06;;;;;;;;;;;;;;;4.34;69.38;98908.12;4450043;32;34386;-56
2021/12/29 00:13:33;;;;;;;;;;;;;;;4.20;70.11;98911.44;4450151;32;33202;-56
2021/12/29 00:16:01;;;;;;;;;;;;;;;4.14;70.47;98911.75;4450195;32;34393;-57
2021/12/29 00:18:32;;;;;;;;;;;;;;;4.27;69.93;98898.94;4450091;32;35557;-56
2021/12/29 00:21:00;;;;;;;;;;;;;;;4.12;70.07;98903.13;4450717;32;33401;-56
2021/12/29 00:23:27;;;;;;;;;;;;;;;4.16;70.14;98901.22;4450001;32;33318;-56
2021/12/29 00:26:03;;;;;;;;;;;;;;;4.19;70.13;98896.69;4449952;32;34915;-55
2021/12/29 00:28:30;;;;;;;;;;;;;;;4.04;70.61;98898.28;4450251;32;34311;-57
2021/12/29 00:30:59;;;;;;;;;;;;;;;4.17;70.29;98895.94;4450023;32;34551;-56
2021/12/29 00:33:43;;;;;;;;;;;;;;;4.14;70.28;98886.47;4450425;32;34200;-56
2021/12/29 00:36:13;;;;;;;;;;;;;;;4.06;70.48;98875.56;4449938;32;34650;-57
2021/12/29 00:38:45;;;;;;;;;;;;;;;3.85;71.04;98877.44;4450144;32;34176;-55
2021/12/29 00:41:16;;;;;;;;;;;;;;;4.03;70.51;98887.91;4450217;32;33682;-56
2021/12/29 00:43:48;;;;;;;;;;;;;;;4.04;70.45;98880.00;4450108;32;31563;-56
2021/12/29 00:46:17;;;;;;;;;;;;;;;3.96;70.63;98876.94;4450274;32;34836;-55
2021/12/29 00:48:46;;;;;;;;;;;;;;;4.07;70.14;98874.66;4449644;32;34566;-56
2021/12/29 00:51:14;;;;;;;;;;;;;;;3.98;70.62;98880.31;4450069;32;34340;-56
2021/12/29 00:53:41;;;;;;;;;;;;;;;4.00;70.39;98880.25;4449991;32;33510;-56
2021/12/29 00:56:09;;;;;;;;;;;;;;;3.96;70.51;98874.31;4449868;32;33911;-55
2021/12/29 00:58:36;;;;;;;;;;;;;;;4.06;70.54;98883.38;4449692;32;35459;-55
2021/12/29 01:01:03;;;;;;;;;;;;;;;3.96;70.71;98874.31;4449912;32;33926;-55
2021/12/29 01:03:31;;;;;;;;;;;;;;;3.81;71.13;98869.84;4449975;32;34546;-56
2021/12/29 01:05:58;;;;;;;;;;;;;;;3.83;71.36;98866.22;4449736;32;32974;-56
2021/12/29 01:08:26;;;;;;;;;;;;;;;4.09;70.63;98867.56;4449923;32;34871;-56
2021/12/29 01:10:53;;;;;;;;;;;;;;;4.13;70.65;98868.28;4449932;32;35047;-55
2021/12/29 01:13:29;;;;;;;;;;;;;;;4.04;70.78;98861.72;4449663;32;33820;-56
2021/12/29 01:16:09;;;;;;;;;;;;;;;4.12;70.44;98856.94;4449599;32;33771;-56
2021/12/29 01:18:37;;;;;;;;;;;;;;;4.14;70.38;98864.72;4437191;32;34540;-56
2021/12/29 01:21:05;;;;;;;;;;;;;;;4.36;69.49;98856.63;4449866;32;35743;-56
2021/12/29 01:23:32;;;;;;;;;;;;;;;4.12;70.53;98856.09;4449631;32;33046;-56
2021/12/29 01:26:00;;;;;;;;;;;;;;;4.18;70.52;98860.19;4449588;32;34306;-56
2021/12/29 01:28:27;;;;;;;;;;;;;;;4.33;70.13;98854.19;4449609;32;34815;-56
2021/12/29 01:30:55;;;;;;;;;;;;;;;4.11;70.52;98847.44;4449397;32;34516;-57
2021/12/29 01:33:22;;;;;;;;;;;;;;;3.98;70.53;98845.53;4449502;32;33003;-56
2021/12/29 01:35:49;;;;;;;;;;;;;;;3.72;71.54;98842.41;4449276;32;33903;-56
2021/12/29 01:38:17;;;;;;;;;;;;;;;4.08;70.66;98855.41;4449602;32;34761;-56
2021/12/29 01:40:48;;;;;;;;;;;;;;;4.14;70.34;98864.72;4449253;32;33946;-56
2021/12/29 01:43:16;;;;;;;;;;;;;;;4.30;69.71;98867.41;4449680;32;33018;-56
2021/12/29 01:45:43;;;;;;;;;;;;;;;4.13;70.30;98869.09;4449242;32;34912;-56
2021/12/29 01:48:10;;;;;;;;;;;;;;;4.11;70.54;98864.84;4449176;32;34823;-56
2021/12/29 01:50:38;;;;;;;;;;;;;;;4.39;69.55;98863.47;4449359;32;34077;-56
2021/12/29 01:53:10;;;;;;;;;;;;;;;4.33;69.82;98872.47;4449502;32;33082;-55
2021/12/29 01:55:37;;;;;;;;;;;;;;;4.28;70.20;98879.69;4449143;32;33706;-56
2021/12/29 01:58:05;;;;;;;;;;;;;;;4.44;69.58;98883.25;4449206;32;34352;-55
2021/12/29 02:00:34;;;;;;;;;;;;;;;4.30;70.36;98893.53;4449325;32;34538;-56
2021/12/29 02:03:01;;;;;;;;;;;;;;;4.29;70.47;98876.19;4449301;32;33531;-56
2021/12/29 02:05:29;;;;;;;;;;;;;;;4.47;69.95;98877.84;4448998;32;33991;-56
2021/12/29 02:07:56;;;;;;;;;;;;;;;4.39;70.19;98873.94;4449246;32;34321;-56
2021/12/29 02:10:24;;;;;;;;;;;;;;;4.44;70.07;98869.31;4450835;32;35862;-57
2021/12/29 02:12:51;;;;;;;;;;;;;;;4.32;70.42;98873.37;4451173;32;34210;-56
2021/12/29 02:15:19;;;;;;;;;;;;;;;4.45;70.03;98871.00;4450836;32;34042;-56
2021/12/29 02:17:49;;;;;;;;;;;;;;;4.50;69.61;98871.63;4450972;32;34040;-56
2021/12/29 02:20:19;;;;;;;;;;;;;;;4.44;69.81;98871.91;4450968;32;34343;-56
2021/12/29 02:22:50;;;;;;;;;;;;;;;4.56;69.52;98879.16;4450893;32;32928;-56
2021/12/29 02:27:49;;;;;;;;;;;;;;;4.62;69.23;98878.00;4450974;32;34699;-56
2021/12/29 02:30:18;;;;;;;;;;;;;;;4.50;69.59;98877.69;4451109;32;33904;-56
2021/12/29 02:32:45;;;;;;;;;;;;;;;4.57;69.38;98870.38;4450789;32;33232;-56
2021/12/29 02:35:14;;;;;;;;;;;;;;;4.68;68.91;98873.28;4450654;32;33996;-56
2021/12/29 02:37:41;;;;;;;;;;;;;;;4.61;69.14;98874.50;4450806;32;35375;-56
2021/12/29 02:40:09;;;;;;;;;;;;;;;4.63;69.12;98880.50;4450740;32;34306;-57
2021/12/29 02:42:41;;;;;;;;;;;;;;;4.64;68.48;98876.12;4451209;32;34381;-56
2021/12/29 02:45:13;;;;;;;;;;;;;;;4.51;68.84;98879.38;4450637;32;34353;-56
2021/12/29 02:47:40;;;;;;;;;;;;;;;4.59;68.74;98881.59;4450886;32;34350;-57
2021/12/29 02:50:09;;;;;;;;;;;;;;;4.49;68.94;98886.44;4450682;32;35183;-56
2021/12/29 02:52:36;;;;;;;;;;;;;;;4.66;68.42;98876.91;4450866;32;34352;-56
2021/12/29 02:55:03;;;;;;;;;;;;;;;4.58;68.70;98879.91;4450516;32;34663;-56
2021/12/29 02:57:31;;;;;;;;;;;;;;;4.52;69.10;98885.47;4450514;32;35640;-56
2021/12/29 02:59:58;;;;;;;;;;;;;;;4.54;68.96;98878.38;4450937;32;33910;-56
2021/12/29 03:02:25;;;;;;;;;;;;;;;4.43;69.48;98888.53;4450523;32;33453;-56
2021/12/29 03:04:56;;;;;;;;;;;;;;;4.56;69.30;98888.78;4450699;32;35032;-56
2021/12/29 03:07:27;;;;;;;;;;;;;;;4.56;69.20;98873.91;4450526;32;34730;-56
2021/12/29 03:09:55;;;;;;;;;;;;;;;4.57;69.15;98885.22;4450496;32;34668;-56
2021/12/29 03:12:22;;;;;;;;;;;;;;;4.64;68.87;98881.37;4450600;32;33000;-56
2021/12/29 03:14:50;;;;;;;;;;;;;;;4.50;69.06;98869.84;4450367;32;34246;-56
2021/12/29 03:17:18;;;;;;;;;;;;;;;4.34;69.50;98872.41;4450688;32;34830;-56
2021/12/29 03:19:45;;;;;;;;;;;;;;;4.23;69.82;98869.50;4449558;32;34417;-56
2021/12/29 03:22:15;;;;;;;;;;;;;;;4.21;70.06;98873.94;4450674;32;32989;-56
2021/12/29 03:24:42;;;;;;;;;;;;;;;4.10;70.61;98871.03;4449994;32;33671;-56
2021/12/29 03:27:09;;;;;;;;;;;;;;;4.33;69.98;98875.09;4450061;32;35540;-56
2021/12/29 03:29:36;;;;;;;;;;;;;;;4.38;69.41;98880.06;4450676;32;33898;-56
2021/12/29 03:32:08;;;;;;;;;;;;;;;4.32;69.65;98873.37;4450719;32;32975;-56
2021/12/29 03:34:35;;;;;;;;;;;;;;;4.43;69.48;98875.47;4450584;32;34239;-55
2021/12/29 03:37:02;;;;;;;;;;;;;;;4.34;69.37;98868.94;4450193;32;35125;-56
2021/12/29 03:39:37;;;;;;;;;;;;;;;4.29;69.63;98878.78;4450481;32;34137;-56
2021/12/29 03:42:04;;;;;;;;;;;;;;;4.16;70.50;98878.56;4450329;32;33993;-56
2021/12/29 03:44:32;;;;;;;;;;;;;;;4.42;69.71;98882.47;4450520;32;34719;-56
2021/12/29 03:46:59;;;;;;;;;;;;;;;4.35;70.06;98883.69;4450543;32;34306;-56
2021/12/29 03:49:26;;;;;;;;;;;;;;;4.31;70.06;98887.41;4450340;32;34197;-56
2021/12/29 03:51:54;;;;;;;;;;;;;;;4.44;69.74;98895.44;4450483;32;33652;-56
2021/12/29 03:54:22;;;;;;;;;;;;;;;4.47;69.79;98898.75;4450412;32;34172;-56
2021/12/29 03:56:49;;;;;;;;;;;;;;;4.45;69.79;98887.53;4450148;32;34015;-56
2021/12/29 03:59:17;;;;;;;;;;;;;;;4.39;69.56;98880.00;4450153;32;35453;-56
2021/12/29 04:01:46;;;;;;;;;;;;;;;4.37;69.56;98881.00;4450589;32;33899;-56
2021/12/29 04:04:13;;;;;;;;;;;;;;;4.37;69.65;98884.47;4450144;32;34671;-56
2021/12/29 04:06:40;;;;;;;;;;;;;;;4.50;69.34;98880.31;4450344;32;34334;-56
2021/12/29 04:09:07;;;;;;;;;;;;;;;4.44;69.69;98885.84;4450271;32;34383;-56
2021/12/29 04:11:35;;;;;;;;;;;;;;;4.36;70.01;98888.00;4450130;32;32621;-56
2021/12/29 04:14:02;;;;;;;;;;;;;;;4.51;69.54;98889.81;4450227;32;34345;-56
2021/12/29 04:16:29;;;;;;;;;;;;;;;4.38;69.77;98899.25;4450222;32;34714;-56
2021/12/29 04:19:17;;;;;;;;;;;;;;;4.35;70.11;98899.38;4450004;32;34197;-56
2021/12/29 04:21:46;;;;;;;;;;;;;;;4.49;69.58;98903.91;4450229;32;34357;-56
2021/12/29 04:24:13;;;;;;;;;;;;;;;4.43;70.04;98912.91;4450014;32;33798;-56
2021/12/29 04:26:40;;;;;;;;;;;;;;;4.47;69.77;98914.44;4450335;32;35587;-57
2021/12/29 04:29:08;;;;;;;;;;;;;;;4.45;69.83;98916.28;4450190;32;34482;-56
2021/12/29 04:31:36;;;;;;;;;;;;;;;4.56;69.50;98909.69;4449739;32;33395;-56
2021/12/29 04:34:03;;;;;;;;;;;;;;;4.74;68.80;98913.94;4449863;32;34725;-56
2021/12/29 04:36:30;;;;;;;;;;;;;;;4.79;68.41;98903.25;4449902;32;34149;-56
2021/12/29 04:38:58;;;;;;;;;;;;;;;4.73;68.65;98904.44;4450103;32;33957;-56
2021/12/29 04:41:25;;;;;;;;;;;;;;;4.52;69.20;98907.22;4449986;32;32925;-56
2021/12/29 04:43:52;;;;;;;;;;;;;;;4.51;69.16;98905.50;4450214;32;34506;-57
2021/12/29 04:46:27;;;;;;;;;;;;;;;4.62;69.01;98904.97;4449941;32;34861;-56
2021/12/29 04:49:00;;;;;;;;;;;;;;;4.52;69.15;98911.59;4450156;32;34270;-56
2021/12/29 04:51:35;;;;;;;;;;;;;;;4.51;69.42;98922.97;4449768;32;34064;-56
2021/12/29 04:54:03;;;;;;;;;;;;;;;4.62;69.10;98918.03;4449751;32;34376;-56
2021/12/29 04:56:31;;;;;;;;;;;;;;;4.64;69.06;98916.19;4449886;32;35426;-56
2021/12/29 04:58:58;;;;;;;;;;;;;;;4.68;68.95;98915.12;4449745;32;34324;-56
2021/12/29 05:01:25;;;;;;;;;;;;;;;4.78;68.60;98912.03;4449929;32;33032;-56
2021/12/29 05:03:54;;;;;;;;;;;;;;;4.74;68.59;98914.78;4449779;32;33671;-56
2021/12/29 05:09:07;;;;;;;;;;;;;;;4.61;69.02;98916.34;4449880;32;34578;-56
2021/12/29 05:11:34;;;;;;;;;;;;;;;4.62;68.97;98922.44;4449726;32;33347;-56
2021/12/29 05:14:01;;;;;;;;;;;;;;;4.69;68.82;98918.56;4449892;32;34329;-56
2021/12/29 05:16:29;;;;;;;;;;;;;;;4.61;68.88;98912.88;4449551;32;33938;-56
2021/12/29 05:18:56;;;;;;;;;;;;;;;4.59;68.91;98912.13;4449522;32;34109;-56
2021/12/29 05:21:25;;;;;;;;;;;;;;;4.62;68.86;98919.81;4449590;32;33228;-57
2021/12/29 05:23:53;;;;;;;;;;;;;;;4.78;68.51;98909.41;4449657;32;34409;-56
2021/12/29 05:26:20;;;;;;;;;;;;;;;4.72;68.68;98915.81;4449637;32;35041;-56
2021/12/29 05:28:47;;;;;;;;;;;;;;;4.57;69.04;98914.81;4449659;32;34221;-56
2021/12/29 05:31:15;;;;;;;;;;;;;;;4.79;68.54;98919.81;4449609;32;34933;-56
2021/12/29 05:33:42;;;;;;;;;;;;;;;4.58;69.12;98916.53;4449379;32;34935;-56
2021/12/29 05:36:09;;;;;;;;;;;;;;;4.75;68.69;98920.88;4449404;32;35223;-56
2021/12/29 05:38:36;;;;;;;;;;;;;;;4.71;68.66;98922.81;4449429;32;33668;-56
2021/12/29 05:41:03;;;;;;;;;;;;;;;4.72;68.84;98928.88;4449315;32;34063;-56
2021/12/29 05:43:31;;;;;;;;;;;;;;;4.74;68.63;98927.88;4448356;32;33826;-56
2021/12/29 05:45:58;;;;;;;;;;;;;;;4.68;68.81;98928.19;4449323;32;34907;-56
2021/12/29 05:48:25;;;;;;;;;;;;;;;4.71;68.85;98938.50;4449751;32;34403;-56
2021/12/29 05:50:52;;;;;;;;;;;;;;;4.81;68.46;98944.09;4449314;32;33154;-56
2021/12/29 05:53:20;;;;;;;;;;;;;;;4.69;68.82;98936.88;4449219;32;33872;-56
2021/12/29 05:55:48;;;;;;;;;;;;;;;4.70;68.70;98944.66;4449008;32;34933;-56
2021/12/29 05:58:15;;;;;;;;;;;;;;;4.67;68.80;98936.97;4448900;32;34134;-56
2021/12/29 06:00:43;;;;;;;;;;;;;;;4.57;68.81;98946.19;4449183;32;34020;-56
2021/12/29 06:03:11;;;;;;;;;;;;;;;4.61;68.72;98939.03;4448952;32;34169;-56
2021/12/29 06:05:38;;;;;;;;;;;;;;;4.75;68.34;98941.81;4449283;32;36413;-56
2021/12/29 06:08:05;;;;;;;;;;;;;;;4.73;68.49;98947.13;4448837;32;34477;-56
2021/12/29 06:10:33;;;;;;;;;;;;;;;4.53;68.84;98953.34;4448896;32;33648;-56
2021/12/29 06:13:00;;;;;;;;;;;;;;;4.56;68.93;98939.28;4449020;32;34231;-56
2021/12/29 06:15:27;;;;;;;;;;;;;;;4.74;68.40;98942.72;4449036;32;34191;-56
2021/12/29 06:17:55;;;;;;;;;;;;;;;4.72;68.25;98945.41;4448891;32;33956;-56
2021/12/29 06:20:22;;;;;;;;;;;;;;;4.76;68.17;98953.94;4448720;32;33953;-56
2021/12/29 06:22:49;;;;;;;;;;;;;;;4.69;68.63;98952.56;4449093;32;34311;-57
2021/12/29 06:25:17;;;;;;;;;;;;;;;4.61;68.81;98952.13;4448587;32;34945;-56
2021/12/29 06:27:45;;;;;;;;;;;;;;;4.31;69.42;98948.34;4448734;32;34489;-56
2021/12/29 06:30:12;;;;;;;;;;;;;;;4.42;69.13;98955.66;4448713;32;32434;-56
2021/12/29 06:32:40;;;;;;;;;;;;;;;4.20;69.86;98963.69;4448526;32;34340;-56
2021/12/29 06:35:07;;;;;;;;;;;;;;;4.32;69.32;98959.63;4448539;32;34813;-56
2021/12/29 06:37:35;;;;;;;;;;;;;;;4.20;69.52;98955.88;4448450;32;35256;-56
2021/12/29 06:40:02;;;;;;;;;;;;;;;4.20;69.76;98947.19;4448645;32;33442;-56
2021/12/29 06:42:29;;;;;;;;;;;;;;;4.30;69.68;98959.75;4448464;32;34075;-56
2021/12/29 06:44:57;;;;;;;;;;;;;;;4.31;69.45;98961.41;4448572;32;34028;-56
2021/12/29 06:47:24;;;;;;;;;;;;;;;4.24;69.30;98967.00;4448416;32;34333;-56
2021/12/29 06:49:52;;;;;;;;;;;;;;;4.25;69.70;98972.19;4448433;32;34178;-56
2021/12/29 06:52:19;;;;;;;;;;;;;;;4.51;68.74;98978.72;4448268;32;34185;-56
2021/12/29 06:54:46;;;;;;;;;;;;;;;4.45;69.39;98989.47;4449158;32;35385;-56
2021/12/29 06:57:13;;;;;;;;;;;;;;;4.40;69.62;98988.00;4450725;32;33957;-56
2021/12/29 06:59:42;;;;;;;;;;;;;;;4.48;69.41;98986.72;4450689;32;33386;-56
2021/12/29 07:02:10;;;;;;;;;;;;;;;4.39;69.67;98996.78;4450737;32;33827;-56
2021/12/29 07:04:37;;;;;;;;;;;;;;;4.33;69.92;98984.88;4450375;32;34201;-56
2021/12/29 07:07:04;;;;;;;;;;;;;;;4.41;69.61;98982.72;4450414;32;33944;-56
2021/12/29 07:09:33;;;;;;;;;;;;;;;4.52;69.40;98985.66;4450737;32;32963;-57
2021/12/29 07:12:00;;;;;;;;;;;;;;;4.61;69.10;98986.09;4450797;32;34921;-56
2021/12/29 07:14:27;;;;;;;;;;;;;;;4.32;69.68;98994.47;4450719;32;33753;-56
2021/12/29 07:16:55;;;;;;;;;;;;;;;4.37;69.82;98993.41;4450438;32;33866;-56
2021/12/29 07:19:22;;;;;;;;;;;;;;;4.27;69.87;98998.25;4450609;32;32967;-56
2021/12/29 07:21:50;;;;;;;;;;;;;;;4.13;70.45;98999.75;4450404;32;34268;-56
2021/12/29 07:24:17;;;;;;;;;;;;;;;3.96;71.06;98993.66;4450360;32;34338;-56
2021/12/29 07:26:44;;;;;;;;;;;;;;;4.03;70.71;99000.25;4450602;32;33956;-56
2021/12/29 07:29:12;;;;;;;;;;;;;;;3.97;70.85;99011.00;4450615;32;33348;-56
2021/12/29 07:31:43;;;;;;;;;;;;;;;4.05;70.99;99014.09;4450661;32;33728;-56
2021/12/29 07:34:20;;;;;;;;;;;;;;;4.19;70.77;99016.03;4450514;32;34608;-56
2021/12/29 07:36:47;;;;;;;;;;;;;;;4.20;70.80;99025.59;4450430;32;34283;-56
2021/12/29 07:39:15;;;;;;;;;;;;;;;4.32;70.33;99024.97;4450321;32;32592;-56
2021/12/29 07:41:43;;;;;;;;;;;;;;;3.97;71.50;99024.06;4450861;32;33916;-56
2021/12/29 07:44:13;;;;;;;;;;;;;;;4.23;70.63;99025.44;4450713;32;34775;-56
2021/12/29 07:46:42;;;;;;;;;;;;;;;4.34;70.46;99030.97;4450918;32;34286;-56
2021/12/29 07:49:09;;;;;;;;;;;;;;;4.32;70.54;99032.81;4450713;32;33653;-55
2021/12/29 07:51:36;;;;;;;;;;;;;;;4.49;70.06;99034.63;4450736;32;35128;-56
2021/12/29 07:54:03;;;;;;;;;;;;;;;4.31;70.24;99031.97;4450759;32;34131;-56
2021/12/29 07:56:30;;;;;;;;;;;;;;;4.27;70.54;99037.44;4450449;32;34322;-56
2021/12/29 07:58:58;;;;;;;;;;;;;;;4.49;69.95;99032.84;4450495;32;33330;-56
2021/12/29 08:01:25;;;;;;;;;;;;;;;4.46;70.37;99034.75;4450588;32;34816;-56
2021/12/29 08:03:53;;;;;;;;;;;;;;;4.50;70.30;99034.56;4450442;32;34529;-56
2021/12/29 08:06:20;;;;;;;;;;;;;;;4.70;69.65;99032.72;4450154;32;34693;-56
2021/12/29 08:08:47;;;;;;;;;;;;;;;4.61;70.06;99035.78;4426634;32;783110;-59
2021/12/29 08:11:16;;;;;;;;;;;;;;;4.67;69.82;99035.47;4450603;32;35090;-56
2021/12/29 08:13:43;;;;;;;;;;;;;;;4.67;69.77;99035.47;4450353;32;34706;-56
2021/12/29 08:16:10;;;;;;;;;;;;;;;4.70;69.30;99037.97;4450402;32;33874;-56
2021/12/29 08:18:38;;;;;;;;;;;;;;;4.64;69.63;99046.94;4450479;32;33043;-56
2021/12/29 08:21:06;;;;;;;;;;;;;;;4.68;69.69;99052.88;4450656;32;33517;-56
2021/12/29 08:23:33;;;;;;;;;;;;;;;4.68;69.61;99053.72;4450839;32;34802;-56
2021/12/29 08:26:01;;;;;;;;;;;;;;;4.70;69.74;99053.66;4450419;32;34274;-56
2021/12/29 08:28:28;;;;;;;;;;;;;;;4.71;69.86;99065.78;4450726;32;33626;-56
2021/12/29 08:30:55;;;;;;;;;;;;;;;4.58;70.37;99064.72;4450369;32;34914;-56
2021/12/29 08:33:23;;;;;;;;;;;;;;;4.77;69.81;99070.75;4450223;32;35511;-56
2021/12/29 08:35:50;;;;;;;;;;;;;;;4.73;69.54;99072.66;4450331;32;35436;-56
2021/12/29 08:38:18;;;;;;;;;;;;;;;4.81;69.29;99077.50;4450468;32;33614;-56
2021/12/29 08:40:45;;;;;;;;;;;;;;;4.70;69.95;99074.56;4450598;32;34073;-56
2021/12/29 08:43:14;;;;;;;;;;;;;;;4.67;69.29;99078.19;4450446;32;34809;-56
2021/12/29 08:45:42;;;;;;;;;;;;;;;4.45;69.77;99093.22;4450413;32;35068;-56
2021/12/29 08:48:11;;;;;;;;;;;;;;;4.88;68.06;99084.13;4450287;32;34234;-56
2021/12/29 08:50:38;;;;;;;;;;;;;;;4.65;69.22;99087.00;4450414;32;33857;-56
2021/12/29 08:53:06;;;;;;;;;;;;;;;4.65;69.67;99095.72;4450471;32;34483;-56
2021/12/29 08:55:33;;;;;;;;;;;;;;;4.62;70.22;99102.88;4450160;32;34168;-56
2021/12/29 08:58:01;;;;;;;;;;;;;;;4.90;69.10;99094.50;4450239;32;33529;-56
2021/12/29 09:00:28;;;;;;;;;;;;;;;4.82;69.36;99089.66;4450077;32;34531;-56
2021/12/29 09:02:55;;;;;;;;;;;;;;;4.80;69.80;99098.50;4450202;32;34412;-56
2021/12/29 09:05:23;;;;;;;;;;;;;;;4.90;69.69;99091.88;4450218;32;33829;-56
2021/12/29 09:07:50;;;;;;;;;;;;;;;5.09;69.16;99089.22;4450078;32;33526;-56
2021/12/29 09:10:18;;;;;;;;;;;;;;;5.17;69.02;99087.03;4450133;32;34900;-56
2021/12/29 09:12:47;;;;;;;;;;;;;;;5.00;69.15;99089.66;4450202;32;35251;-56
2021/12/29 09:15:15;;;;;;;;;;;;;;;5.04;69.28;99081.59;4450258;32;34536;-56
2021/12/29 09:17:42;;;;;;;;;;;;;;;5.20;69.00;99083.44;4448776;32;32878;-56
2021/12/29 09:20:15;;;;;;;;;;;;;;;5.15;69.53;99082.81;4450315;32;34129;-56
2021/12/29 09:22:42;;;;;;;;;;;;;;;5.17;69.31;99076.56;4450083;32;34576;-56
2021/12/29 09:25:10;;;;;;;;;;;;;;;5.26;68.85;99070.03;4449903;32;34541;-56
2021/12/29 09:27:37;;;;;;;;;;;;;;;5.51;67.92;99069.59;4449986;32;33246;-56
2021/12/29 09:30:04;;;;;;;;;;;;;;;5.41;68.45;99077.09;4449988;32;33518;-56
2021/12/29 09:32:32;;;;;;;;;;;;;;;5.48;68.41;99067.12;4450049;32;34920;-56
2021/12/29 09:35:00;;;;;;;;;;;;;;;5.57;68.19;99057.97;4449846;32;34569;-56
2021/12/29 09:37:28;;;;;;;;;;;;;;;5.70;67.65;99059.00;4449870;32;34229;-56
2021/12/29 09:39:55;;;;;;;;;;;;;;;5.67;67.76;99046.06;4449631;32;34827;-56
2021/12/29 09:42:22;;;;;;;;;;;;;;;5.68;67.80;99048.59;4449747;32;34340;-56
2021/12/29 09:44:50;;;;;;;;;;;;;;;5.87;67.41;99047.59;4449759;32;33907;-56
2021/12/29 09:47:18;;;;;;;;;;;;;;;5.84;67.69;99046.00;4435727;32;33466;-56
2021/12/29 09:49:45;;;;;;;;;;;;;;;5.69;68.27;99038.97;4449859;32;35059;-56
2021/12/29 09:52:14;;;;;;;;;;;;;;;5.76;68.39;99039.47;4449602;32;34333;-56
2021/12/29 09:54:41;;;;;;;;;;;;;;;5.76;68.77;99047.31;4449659;32;34338;-56
2021/12/29 09:57:08;;;;;;;;;;;;;;;5.96;68.37;99038.44;4449346;32;34053;-56
2021/12/29 09:59:36;;;;;;;;;;;;;;;5.90;67.79;99032.56;4449471;32;33702;-56
2021/12/29 10:02:08;;;;;;;;;;;;;;;5.77;68.44;99035.94;4449501;32;34658;-56
2021/12/29 10:04:37;;;;;;;;;;;;;;;5.79;68.91;99031.47;4449395;32;34044;-56
2021/12/29 10:07:11;;;;;;;;;;;;;;;5.94;68.59;99027.16;4449575;32;32959;-56
2021/12/29 10:09:38;;;;;;;;;;;;;;;5.91;69.12;99020.28;4449344;32;34070;-56
2021/12/29 10:12:07;;;;;;;;;;;;;;;5.91;69.43;99026.41;4449510;32;34834;-56
2021/12/29 10:14:34;;;;;;;;;;;;;;;5.85;69.41;99021.47;4449413;32;34304;-56
2021/12/29 10:17:09;;;;;;;;;;;;;;;6.18;68.43;99028.44;4449281;32;33056;-56
2021/12/29 10:19:39;;;;;;;;;;;;;;;5.95;69.07;99026.22;4449469;32;33607;-56
2021/12/29 10:22:06;;;;;;;;;;;;;;;6.13;68.50;99033.13;4449164;32;33515;-56
2021/12/29 10:24:34;;;;;;;;;;;;;;;6.22;68.29;99032.59;4449312;32;35026;-56
2021/12/29 10:27:01;;;;;;;;;;;;;;;6.19;68.70;99029.31;4449081;32;34157;-56
2021/12/29 10:29:29;;;;;;;;;;;;;;;6.33;68.47;99029.38;4449811;32;33621;-56
2021/12/29 10:31:57;;;;;;;;;;;;;;;6.38;68.27;99029.97;4451121;32;35155;-56
2021/12/29 10:34:29;;;;;;;;;;;;;;;6.31;68.86;99032.06;4451096;32;34367;-56
2021/12/29 10:37:04;;;;;;;;;;;;;;;6.13;69.50;99035.75;4451517;32;33986;-56
2021/12/29 10:39:37;;;;;;;;;;;;;;;6.29;68.90;99040.97;4451067;32;33597;-56
2021/12/29 10:42:09;;;;;;;;;;;;;;;6.19;69.60;99039.78;4451515;32;35372;-56
2021/12/29 10:44:38;;;;;;;;;;;;;;;6.16;69.51;99037.34;4451125;32;33946;-56
2021/12/29 10:47:28;;;;;;;;;;;;;;;6.22;69.43;99036.97;4451165;32;33453;-56
2021/12/29 10:49:56;;;;;;;;;;;;;;;6.38;68.98;99034.34;4451361;32;33659;-56
2021/12/29 10:52:29;;;;;;;;;;;;;;;6.34;69.06;99033.69;4451063;32;35258;-56
2021/12/29 10:54:56;;;;;;;;;;;;;;;6.43;68.72;99038.41;4451077;32;34303;-57
2021/12/29 10:57:24;;;;;;;;;;;;;;;6.36;68.93;99031.84;4451114;32;33593;-56
2021/12/29 10:59:55;;;;;;;;;;;;;;;6.27;69.08;99032.34;4451058;32;33951;-56
2021/12/29 11:02:26;;;;;;;;;;;;;;;6.30;68.84;99042.63;4451326;32;34357;-56
2021/12/29 11:04:57;;;;;;;;;;;;;;;6.19;68.92;99039.78;4451099;32;34827;-56
2021/12/29 11:07:26;;;;;;;;;;;;;;;6.40;67.94;99048.25;4451228;32;33746;-56
2021/12/29 11:09:53;;;;;;;;;;;;;;;6.39;67.98;99042.13;4436977;32;33530;-56
2021/12/29 11:12:21;;;;;;;;;;;;;;;6.19;68.66;99039.78;4451261;32;34889;-56
2021/12/29 11:14:53;;;;;;;;;;;;;;;6.23;68.39;99043.94;4450837;32;34475;-56
2021/12/29 11:17:22;;;;;;;;;;;;;;;6.26;68.43;99035.88;4450928;32;33047;-56
2021/12/29 11:19:51;;;;;;;;;;;;;;;6.36;68.45;99042.31;4450910;32;35053;-56
2021/12/29 11:22:20;;;;;;;;;;;;;;;6.34;68.68;99048.56;4450697;32;34144;-56
2021/12/29 11:24:54;;;;;;;;;;;;;;;6.16;69.49;99040.78;4451011;32;35135;-56
2021/12/29 11:27:21;;;;;;;;;;;;;;;6.23;69.47;99046.56;4451012;32;33082;-56
2021/12/29 11:29:50;;;;;;;;;;;;;;;6.15;69.73;99040.91;4451000;32;34605;-56
2021/12/29 11:32:19;;;;;;;;;;;;;;;6.15;69.63;99048.75;4436902;32;34753;-56
2021/12/29 11:34:56;;;;;;;;;;;;;;;6.06;69.82;99045.69;4450787;32;33964;-56
2021/12/29 11:37:24;;;;;;;;;;;;;;;6.08;69.39;99043.84;4451054;32;34124;-56
2021/12/29 11:39:51;;;;;;;;;;;;;;;6.11;69.27;99046.31;4450898;32;34435;-56
2021/12/29 11:42:18;;;;;;;;;;;;;;;6.18;68.97;99041.53;4450240;32;34245;-56
2021/12/29 11:44:45;;;;;;;;;;;;;;;6.17;68.70;99042.50;4450690;32;33728;-56
2021/12/29 11:47:13;;;;;;;;;;;;;;;6.09;68.58;99049.94;4450592;32;34012;-56
2021/12/29 11:49:40;;;;;;;;;;;;;;;6.30;67.87;99051.38;4450602;32;34266;-56
2021/12/29 11:52:16;;;;;;;;;;;;;;;6.24;67.72;99050.84;4450711;32;34995;-56
2021/12/29 11:55:03;;;;;;;;;;;;;;;6.11;68.26;99056.78;4437038;32;34859;-57
2021/12/29 11:57:31;;;;;;;;;;;;;;;6.35;67.57;99056.34;4450578;32;33508;-56
2021/12/29 12:00:21;;;;;;;;;;;;;;;6.25;67.97;99058.63;4450765;32;34056;-56
2021/12/29 12:02:49;;;;;;;;;;;;;;;6.35;67.61;99064.22;4450615;32;35610;-56
2021/12/29 12:05:22;;;;;;;;;;;;;;;6.20;67.99;99059.81;4450682;32;34180;-56
2021/12/29 12:07:50;;;;;;;;;;;;;;;6.07;68.16;99064.91;4450883;32;33000;-56
2021/12/29 12:10:33;;;;;;;;;;;;;;;6.20;67.76;99071.16;4436508;32;34589;-56
2021/12/29 12:13:02;;;;;;;;;;;;;;;6.19;67.94;99066.00;4450567;32;34241;-56
2021/12/29 12:15:34;;;;;;;;;;;;;;;6.12;68.46;99068.09;4450426;32;34460;-56
2021/12/29 12:18:07;;;;;;;;;;;;;;;6.11;68.68;99074.28;4450508;32;33688;-56
2021/12/29 12:20:40;;;;;;;;;;;;;;;6.22;68.72;99065.81;4450618;32;33545;-56
2021/12/29 12:23:08;;;;;;;;;;;;;;;6.46;67.74;99074.94;4450502;32;35639;-56
2021/12/29 12:25:35;;;;;;;;;;;;;;;6.21;68.12;99069.41;4450864;32;34534;-56
2021/12/29 12:28:03;;;;;;;;;;;;;;;6.11;68.85;99074.28;4450425;32;32906;-56
2021/12/29 12:30:45;;;;;;;;;;;;;;;5.98;70.04;99068.88;4450548;32;34311;-56
2021/12/29 12:33:13;;;;;;;;;;;;;;;6.20;69.39;99067.69;4450723;32;35535;-56
2021/12/29 12:35:42;;;;;;;;;;;;;;;6.28;69.21;99075.97;4450298;32;35259;-56
2021/12/29 12:38:17;;;;;;;;;;;;;;;6.36;69.17;99071.16;4450550;32;32849;-56
2021/12/29 12:41:07;;;;;;;;;;;;;;;6.44;68.84;99074.19;4450251;32;34346;-56
2021/12/29 12:43:35;;;;;;;;;;;;;;;6.60;68.12;99075.97;4440038;32;34273;-56
2021/12/29 12:46:02;;;;;;;;;;;;;;;6.51;68.07;99077.31;4450282;32;34201;-56
2021/12/29 12:48:31;;;;;;;;;;;;;;;6.47;67.77;99083.66;4436528;32;33100;-56
2021/12/29 12:51:00;;;;;;;;;;;;;;;6.42;67.82;99085.72;4450485;32;35186;-56
2021/12/29 12:53:38;;;;;;;;;;;;;;;6.45;68.13;99082.91;4450066;32;34504;-56
2021/12/29 12:56:06;;;;;;;;;;;;;;;6.51;68.06;99087.78;4450073;32;33969;-56
2021/12/29 12:58:37;;;;;;;;;;;;;;;6.62;67.95;99090.66;4436233;32;32582;-56
2021/12/29 13:01:07;;;;;;;;;;;;;;;6.61;67.57;99090.75;4450407;32;34194;-56
2021/12/29 13:03:35;;;;;;;;;;;;;;;6.73;67.00;99097.94;4450358;32;34474;-56
2021/12/29 13:06:02;;;;;;;;;;;;;;;6.60;67.45;99103.03;4450091;32;34215;-56
2021/12/29 13:08:31;;;;;;;;;;;;;;;6.50;67.94;99101.84;4450449;32;33827;-56
2021/12/29 13:10:59;;;;;;;;;;;;;;;6.40;68.84;99101.53;4450112;32;34020;-56